createdAt,value
2019-02-14T00:00:04.927Z,2.20
2019-02-14T00:01:04.489Z,2.10
2019-02-14T00:02:04.945Z,2.10
2019-02-14T00:03:04.642Z,2.10
2019-02-14T00:04:04.660Z,2.00
2019-02-14T00:05:04.855Z,2.00
2019-02-14T00:06:05.151Z,2.00
2019-02-14T00:07:10.176Z,1.90
2019-02-14T00:08:04.751Z,1.90
2019-02-14T00:09:04.460Z,1.90
2019-02-14T00:10:04.469Z,1.90
2019-02-14T00:11:04.656Z,1.90
2019-02-14T00:12:04.766Z,1.90
2019-02-14T00:13:04.482Z,1.80
2019-02-14T00:14:04.637Z,1.80
2019-02-14T00:15:04.732Z,1.80
2019-02-14T00:16:04.232Z,1.80
2019-02-14T00:17:04.437Z,1.70
2019-02-14T00:18:04.582Z,1.70
2019-02-14T00:19:04.711Z,1.70
2019-02-14T00:20:05.071Z,1.70
2019-02-14T00:21:05.198Z,1.70
2019-02-14T00:22:04.401Z,1.70
2019-02-14T00:23:04.406Z,1.70
2019-02-14T00:24:04.681Z,1.70
2019-02-14T00:25:04.712Z,1.70
2019-02-14T00:26:04.948Z,1.70
2019-02-14T00:27:04.980Z,1.70
2019-02-14T00:28:04.242Z,1.70
2019-02-14T00:29:04.551Z,1.70
2019-02-14T00:30:04.977Z,1.60
2019-02-14T00:31:04.270Z,1.60
2019-02-14T00:32:04.925Z,1.50
2019-02-14T00:33:04.392Z,1.50
2019-02-14T00:34:04.602Z,1.50
2019-02-14T00:35:04.280Z,1.50
2019-02-14T00:36:05.002Z,1.50
2019-02-14T00:37:05.154Z,1.40
2019-02-14T00:38:04.543Z,1.40
2019-02-14T00:39:05.080Z,1.40
2019-02-14T00:40:05.150Z,1.40
2019-02-14T00:41:09.692Z,1.40
2019-02-14T00:42:05.199Z,1.40
2019-02-14T00:43:04.538Z,1.40
2019-02-14T00:44:04.619Z,1.30
2019-02-14T00:45:04.903Z,1.40
2019-02-14T00:46:04.881Z,1.30
2019-02-14T00:47:04.191Z,1.30
2019-02-14T00:48:05.083Z,1.30
2019-02-14T00:49:04.709Z,1.30
2019-02-14T00:50:04.802Z,1.30
2019-02-14T00:51:04.914Z,1.30
2019-02-14T00:52:04.932Z,1.30
2019-02-14T00:53:05.060Z,1.30
2019-02-14T00:54:05.223Z,1.30
2019-02-14T00:55:04.288Z,1.30
2019-02-14T00:56:04.326Z,1.30
2019-02-14T00:57:04.565Z,1.30
2019-02-14T00:58:04.816Z,1.20
2019-02-14T00:59:04.170Z,1.20
2019-02-14T01:00:05.953Z,1.20
2019-02-14T01:01:04.800Z,1.20
2019-02-14T01:02:04.839Z,1.20
2019-02-14T01:03:05.060Z,1.20
2019-02-14T01:04:05.131Z,1.20
2019-02-14T01:05:04.290Z,1.20
2019-02-14T01:06:04.622Z,1.20
2019-02-14T01:07:04.341Z,1.20
2019-02-14T01:08:04.387Z,1.10
2019-02-14T01:09:04.653Z,1.10
2019-02-14T01:10:04.973Z,1.10
2019-02-14T01:11:04.356Z,1.10
2019-02-14T01:12:04.599Z,1.10
2019-02-14T01:13:04.722Z,1.10
2019-02-14T01:14:04.904Z,1.10
2019-02-14T01:15:04.296Z,1.10
2019-02-14T01:16:04.315Z,1.10
2019-02-14T01:17:05.063Z,1.00
2019-02-14T01:18:04.430Z,1.00
2019-02-14T01:19:04.588Z,1.00
2019-02-14T01:20:04.893Z,1.00
2019-02-14T01:21:04.358Z,1.00
2019-02-14T01:22:04.452Z,1.00
2019-02-14T01:23:04.981Z,1.00
2019-02-14T01:24:04.998Z,1.00
2019-02-14T01:25:04.201Z,1.00
2019-02-14T01:26:04.337Z,1.00
2019-02-14T01:27:04.484Z,1.00
2019-02-14T01:28:05.107Z,1.00
2019-02-14T01:29:09.858Z,1.00
2019-02-14T01:30:04.256Z,0.90
2019-02-14T01:31:04.400Z,0.90
2019-02-14T01:32:04.578Z,0.90
2019-02-14T01:33:04.638Z,0.90
2019-02-14T01:34:04.661Z,0.90
2019-02-14T01:35:04.829Z,0.90
2019-02-14T01:36:05.234Z,0.90
2019-02-14T01:37:04.382Z,0.90
2019-02-14T01:38:04.411Z,0.80
2019-02-14T01:39:04.612Z,0.80
2019-02-14T01:40:04.232Z,0.80
2019-02-14T01:41:04.478Z,0.80
2019-02-14T01:42:04.483Z,0.80
2019-02-14T01:43:04.696Z,0.80
2019-02-14T01:44:04.835Z,0.80
2019-02-14T01:45:04.782Z,0.80
2019-02-14T01:46:05.087Z,0.80
2019-02-14T01:47:05.033Z,0.80
2019-02-14T01:48:04.544Z,0.80
2019-02-14T01:49:04.236Z,0.70
2019-02-14T01:50:04.547Z,0.70
2019-02-14T01:51:04.575Z,0.80
2019-02-14T01:52:04.722Z,0.70
2019-02-14T01:53:05.197Z,0.70
2019-02-14T01:54:04.198Z,0.80
2019-02-14T01:55:04.330Z,0.80
2019-02-14T01:56:04.485Z,0.70
2019-02-14T01:57:04.735Z,0.70
2019-02-14T01:58:05.138Z,0.70
2019-02-14T01:59:05.037Z,0.70
2019-02-14T02:00:04.279Z,0.70
2019-02-14T02:01:04.390Z,0.70
2019-02-14T02:02:04.466Z,0.70
2019-02-14T02:03:04.578Z,0.70
2019-02-14T02:04:04.806Z,0.70
2019-02-14T02:05:04.853Z,0.60
2019-02-14T02:06:05.019Z,0.60
2019-02-14T02:07:04.451Z,0.60
2019-02-14T02:08:04.471Z,0.60
2019-02-14T02:09:04.566Z,0.60
2019-02-14T02:10:04.689Z,0.60
2019-02-14T02:11:04.828Z,0.60
2019-02-14T02:12:04.980Z,0.60
2019-02-14T02:13:04.319Z,0.60
2019-02-14T02:14:04.503Z,0.50
2019-02-14T02:15:04.994Z,0.50
2019-02-14T02:16:04.181Z,0.50
2019-02-14T02:17:04.434Z,0.50
2019-02-14T02:18:04.632Z,0.50
2019-02-14T02:19:04.792Z,0.50
2019-02-14T02:20:04.928Z,0.50
2019-02-14T02:21:04.487Z,0.50
2019-02-14T02:22:04.506Z,0.50
2019-02-14T02:23:04.837Z,0.50
2019-02-14T02:24:05.183Z,0.50
2019-02-14T02:25:04.315Z,0.50
2019-02-14T02:26:05.002Z,0.40
2019-02-14T02:27:05.033Z,0.40
2019-02-14T02:28:05.248Z,0.50
2019-02-14T02:29:09.399Z,0.40
2019-02-14T02:30:04.806Z,0.40
2019-02-14T02:31:04.863Z,0.40
2019-02-14T02:32:04.971Z,0.40
2019-02-14T02:33:05.082Z,0.40
2019-02-14T02:34:04.541Z,0.50
2019-02-14T02:35:04.368Z,0.50
2019-02-14T02:36:05.012Z,0.50
2019-02-14T02:37:04.397Z,0.50
2019-02-14T02:38:04.632Z,0.50
2019-02-14T02:39:04.772Z,0.50
2019-02-14T02:40:04.925Z,0.50
2019-02-14T02:41:04.300Z,0.40
2019-02-14T02:42:04.468Z,0.40
2019-02-14T02:43:05.129Z,0.40
2019-02-14T02:44:04.771Z,0.40
2019-02-14T02:45:05.049Z,0.40
2019-02-14T02:46:04.696Z,0.40
2019-02-14T02:47:04.308Z,0.40
2019-02-14T02:48:04.370Z,0.40
2019-02-14T02:49:04.852Z,0.40
2019-02-14T02:50:04.219Z,0.40
2019-02-14T02:51:04.429Z,0.40
2019-02-14T02:52:04.449Z,0.40
2019-02-14T02:53:04.590Z,0.40
2019-02-14T02:54:04.892Z,0.40
2019-02-14T02:55:04.996Z,0.30
2019-02-14T02:56:05.023Z,0.30
2019-02-14T02:57:04.629Z,0.30
2019-02-14T02:58:09.418Z,0.30
2019-02-14T02:59:04.856Z,0.30
2019-02-14T03:00:04.976Z,0.30
2019-02-14T03:01:04.310Z,0.30
2019-02-14T03:02:04.641Z,0.30
2019-02-14T03:03:04.657Z,0.20
2019-02-14T03:04:04.793Z,0.20
2019-02-14T03:05:05.081Z,0.20
2019-02-14T03:06:10.375Z,0.20
2019-02-14T03:07:04.461Z,0.20
2019-02-14T03:08:04.622Z,0.20
2019-02-14T03:09:04.804Z,0.20
2019-02-14T03:10:04.823Z,0.20
2019-02-14T03:11:04.339Z,0.10
2019-02-14T03:12:04.558Z,0.20
2019-02-14T03:13:04.521Z,0.10
2019-02-14T03:14:04.818Z,0.10
2019-02-14T03:15:04.895Z,0.10
2019-02-14T03:16:04.210Z,0.10
2019-02-14T03:17:04.299Z,0.10
2019-02-14T03:18:04.648Z,0.10
2019-02-14T03:19:04.175Z,0.10
2019-02-14T03:20:04.483Z,0.10
2019-02-14T03:21:04.680Z,0.10
2019-02-14T03:22:04.799Z,0.10
2019-02-14T03:23:04.823Z,0.10
2019-02-14T03:24:04.902Z,0.00
2019-02-14T03:25:05.024Z,0.10
2019-02-14T03:26:04.240Z,0.00
2019-02-14T03:27:04.620Z,0.00
2019-02-14T03:28:04.768Z,0.00
2019-02-14T03:29:04.961Z,0.00
2019-02-14T03:30:04.304Z,0.00
2019-02-14T03:31:04.347Z,0.00
2019-02-14T03:32:09.726Z,0.00
2019-02-14T03:33:04.252Z,0.00
2019-02-14T03:34:04.449Z,-0.10
2019-02-14T03:35:04.890Z,-0.10
2019-02-14T03:36:04.767Z,-0.10
2019-02-14T03:37:04.157Z,-0.10
2019-02-14T03:38:04.930Z,-0.10
2019-02-14T03:39:05.160Z,-0.10
2019-02-14T03:40:04.365Z,-0.20
2019-02-14T03:41:04.446Z,-0.10
2019-02-14T03:42:04.605Z,-0.10
2019-02-14T03:43:04.698Z,-0.20
2019-02-14T03:44:04.715Z,-0.20
2019-02-14T03:45:05.119Z,-0.20
2019-02-14T03:46:04.331Z,-0.20
2019-02-14T03:47:04.735Z,-0.20
2019-02-14T03:48:04.489Z,-0.20
2019-02-14T03:49:05.072Z,-0.20
2019-02-14T03:50:04.491Z,-0.20
2019-02-14T03:51:04.842Z,-0.20
2019-02-14T03:52:05.088Z,-0.30
2019-02-14T03:53:04.506Z,-0.30
2019-02-14T03:54:04.980Z,-0.30
2019-02-14T03:55:05.248Z,-0.30
2019-02-14T03:56:04.307Z,-0.30
2019-02-14T03:57:04.711Z,-0.30
2019-02-14T03:58:04.360Z,-0.30
2019-02-14T03:59:05.125Z,-0.30
2019-02-14T04:00:05.181Z,-0.30
2019-02-14T04:01:04.438Z,-0.30
2019-02-14T04:02:04.490Z,-0.30
2019-02-14T04:03:04.818Z,-0.30
2019-02-14T04:04:05.037Z,-0.30
2019-02-14T04:05:04.731Z,-0.30
2019-02-14T04:06:10.135Z,-0.30
2019-02-14T04:07:04.506Z,-0.30
2019-02-14T04:08:04.836Z,-0.30
2019-02-14T04:09:04.890Z,-0.30
2019-02-14T04:10:05.134Z,-0.30
2019-02-14T04:11:05.237Z,-0.30
2019-02-14T04:12:04.285Z,-0.30
2019-02-14T04:13:04.318Z,-0.40
2019-02-14T04:14:04.798Z,-0.40
2019-02-14T04:15:04.794Z,-0.40
2019-02-14T04:16:05.076Z,-0.40
2019-02-14T04:17:04.565Z,-0.40
2019-02-14T04:18:04.197Z,-0.40
2019-02-14T04:19:04.221Z,-0.40
2019-02-14T04:20:04.447Z,-0.40
2019-02-14T04:21:04.602Z,-0.50
2019-02-14T04:22:04.726Z,-0.50
2019-02-14T04:23:04.877Z,-0.50
2019-02-14T04:24:04.246Z,-0.50
2019-02-14T04:25:04.766Z,-0.50
2019-02-14T04:26:04.358Z,-0.50
2019-02-14T04:27:04.867Z,-0.50
2019-02-14T04:28:04.906Z,-0.50
2019-02-14T04:29:04.332Z,-0.50
2019-02-14T04:30:05.156Z,-0.50
2019-02-14T04:31:04.888Z,-0.50
2019-02-14T04:32:05.045Z,-0.50
2019-02-14T04:33:05.145Z,-0.50
2019-02-14T04:34:04.288Z,-0.60
2019-02-14T04:35:04.432Z,-0.50
2019-02-14T04:36:04.564Z,-0.60
2019-02-14T04:37:04.794Z,-0.60
2019-02-14T04:38:05.056Z,-0.60
2019-02-14T04:39:05.172Z,-0.60
2019-02-14T04:40:04.910Z,-0.60
2019-02-14T04:41:05.016Z,-0.60
2019-02-14T04:42:05.183Z,-0.60
2019-02-14T04:43:04.403Z,-0.60
2019-02-14T04:44:04.834Z,-0.60
2019-02-14T04:45:05.247Z,-0.60
2019-02-14T04:46:04.369Z,-0.60
2019-02-14T04:47:04.812Z,-0.60
2019-02-14T04:48:04.938Z,-0.60
2019-02-14T04:49:04.215Z,-0.60
2019-02-14T04:50:04.388Z,-0.60
2019-02-14T04:51:04.882Z,-0.60
2019-02-14T04:52:04.235Z,-0.60
2019-02-14T04:53:04.346Z,-0.60
2019-02-14T04:54:04.464Z,-0.60
2019-02-14T04:55:04.603Z,-0.60
2019-02-14T04:56:04.609Z,-0.60
2019-02-14T04:57:04.199Z,-0.60
2019-02-14T04:58:04.395Z,-0.60
2019-02-14T04:59:04.781Z,-0.70
2019-02-14T05:00:10.256Z,-0.70
2019-02-14T05:01:04.650Z,-0.70
2019-02-14T05:02:04.936Z,-0.70
2019-02-14T05:03:04.281Z,-0.70
2019-02-14T05:04:04.894Z,-0.70
2019-02-14T05:05:04.332Z,-0.70
2019-02-14T05:06:04.751Z,-0.70
2019-02-14T05:07:04.421Z,-0.70
2019-02-14T05:08:04.618Z,-0.70
2019-02-14T05:09:04.902Z,-0.60
2019-02-14T05:10:05.019Z,-0.60
2019-02-14T05:11:04.537Z,-0.60
2019-02-14T05:12:04.592Z,-0.60
2019-02-14T05:13:04.770Z,-0.60
2019-02-14T05:14:04.226Z,-0.60
2019-02-14T05:15:04.310Z,-0.60
2019-02-14T05:16:04.869Z,-0.60
2019-02-14T05:17:04.240Z,-0.60
2019-02-14T05:18:04.898Z,-0.60
2019-02-14T05:19:04.211Z,-0.50
2019-02-14T05:20:04.344Z,-0.50
2019-02-14T05:21:04.512Z,-0.50
2019-02-14T05:22:04.684Z,-0.50
2019-02-14T05:23:04.431Z,-0.50
2019-02-14T05:24:04.561Z,-0.50
2019-02-14T05:25:05.366Z,-0.60
2019-02-14T05:26:05.036Z,-0.60
2019-02-14T05:27:04.506Z,-0.60
2019-02-14T05:28:05.083Z,-0.60
2019-02-14T05:29:09.475Z,-0.60
2019-02-14T05:30:04.893Z,-0.60
2019-02-14T05:31:04.659Z,-0.60
2019-02-14T05:32:04.184Z,-0.60
2019-02-14T05:33:04.982Z,-0.60
2019-02-14T05:34:04.520Z,-0.60
2019-02-14T05:35:04.432Z,-0.60
2019-02-14T05:36:04.568Z,-0.60
2019-02-14T05:37:04.647Z,-0.60
2019-02-14T05:38:04.816Z,-0.60
2019-02-14T05:39:05.064Z,-0.60
2019-02-14T05:40:05.128Z,-0.60
2019-02-14T05:41:04.439Z,-0.60
2019-02-14T05:42:04.470Z,-0.60
2019-02-14T05:43:05.119Z,-0.60
2019-02-14T05:44:04.501Z,-0.60
2019-02-14T05:45:04.803Z,-0.60
2019-02-14T05:46:04.527Z,-0.60
2019-02-14T05:47:04.707Z,-0.60
2019-02-14T05:48:04.696Z,-0.60
2019-02-14T05:49:04.359Z,-0.50
2019-02-14T05:50:04.861Z,-0.50
2019-02-14T05:51:05.082Z,-0.50
2019-02-14T05:52:04.450Z,-0.50
2019-02-14T05:53:04.379Z,-0.50
2019-02-14T05:54:04.680Z,-0.50
2019-02-14T05:55:04.305Z,-0.50
2019-02-14T05:56:04.597Z,-0.50
2019-02-14T05:57:04.268Z,-0.50
2019-02-14T05:58:04.489Z,-0.50
2019-02-14T05:59:04.923Z,-0.50
2019-02-14T06:00:04.983Z,-0.50
2019-02-14T06:01:05.036Z,-0.50
2019-02-14T06:02:04.783Z,-0.50
2019-02-14T06:03:04.964Z,-0.50
2019-02-14T06:04:04.386Z,-0.50
2019-02-14T06:05:04.510Z,-0.50
2019-02-14T06:06:04.704Z,-0.50
2019-02-14T06:07:05.082Z,-0.50
2019-02-14T06:08:04.185Z,-0.50
2019-02-14T06:09:04.923Z,-0.50
2019-02-14T06:10:05.303Z,-0.50
2019-02-14T06:11:04.287Z,-0.50
2019-02-14T06:12:04.358Z,-0.50
2019-02-14T06:13:05.007Z,-0.50
2019-02-14T06:14:05.171Z,-0.50
2019-02-14T06:15:04.263Z,-0.40
2019-02-14T06:16:04.664Z,-0.40
2019-02-14T06:17:04.493Z,-0.40
2019-02-14T06:18:05.165Z,-0.40
2019-02-14T06:19:04.786Z,-0.40
2019-02-14T06:20:04.345Z,-0.40
2019-02-14T06:21:04.715Z,-0.40
2019-02-14T06:22:05.014Z,-0.40
2019-02-14T06:23:05.117Z,-0.40
2019-02-14T06:24:04.507Z,-0.40
2019-02-14T06:25:04.790Z,-0.40
2019-02-14T06:26:04.988Z,-0.40
2019-02-14T06:27:04.615Z,-0.40
2019-02-14T06:28:04.804Z,-0.40
2019-02-14T06:29:09.404Z,-0.40
2019-02-14T06:30:04.712Z,-0.40
2019-02-14T06:31:05.033Z,-0.40
2019-02-14T06:32:04.717Z,-0.40
2019-02-14T06:33:04.207Z,-0.40
2019-02-14T06:34:04.778Z,-0.40
2019-02-14T06:35:04.904Z,-0.40
2019-02-14T06:36:05.079Z,-0.40
2019-02-14T06:37:09.575Z,-0.30
2019-02-14T06:38:04.642Z,-0.30
2019-02-14T06:39:05.075Z,-0.40
2019-02-14T06:40:04.326Z,-0.30
2019-02-14T06:41:04.510Z,-0.30
2019-02-14T06:42:04.739Z,-0.30
2019-02-14T06:43:04.914Z,-0.30
2019-02-14T06:44:05.156Z,-0.30
2019-02-14T06:45:04.253Z,-0.30
2019-02-14T06:46:04.787Z,-0.30
2019-02-14T06:47:04.783Z,-0.30
2019-02-14T06:48:04.586Z,-0.30
2019-02-14T06:49:09.938Z,-0.30
2019-02-14T06:50:04.371Z,-0.30
2019-02-14T06:51:04.618Z,-0.30
2019-02-14T06:52:05.070Z,-0.30
2019-02-14T06:53:05.095Z,-0.30
2019-02-14T06:54:04.715Z,-0.30
2019-02-14T06:55:05.122Z,-0.30
2019-02-14T06:56:04.833Z,-0.30
2019-02-14T06:57:05.124Z,-0.30
2019-02-14T06:58:04.443Z,-0.30
2019-02-14T06:59:04.650Z,-0.30
2019-02-14T07:00:04.700Z,-0.30
2019-02-14T07:01:05.082Z,-0.30
2019-02-14T07:02:04.538Z,-0.30
2019-02-14T07:03:05.197Z,-0.30
2019-02-14T07:04:04.726Z,-0.20
2019-02-14T07:05:04.365Z,-0.20
2019-02-14T07:06:04.627Z,-0.20
2019-02-14T07:07:04.694Z,-0.20
2019-02-14T07:08:04.930Z,-0.20
2019-02-14T07:09:05.095Z,-0.20
2019-02-14T07:10:05.211Z,-0.20
2019-02-14T07:11:04.683Z,-0.20
2019-02-14T07:12:04.949Z,-0.20
2019-02-14T07:13:05.120Z,-0.20
2019-02-14T07:14:04.397Z,-0.20
2019-02-14T07:15:04.340Z,-0.20
2019-02-14T07:16:04.466Z,-0.20
2019-02-14T07:17:04.952Z,-0.20
2019-02-14T07:18:05.174Z,-0.20
2019-02-14T07:19:04.521Z,-0.10
2019-02-14T07:20:04.695Z,-0.10
2019-02-14T07:21:04.701Z,-0.10
2019-02-14T07:22:04.892Z,-0.10
2019-02-14T07:23:05.075Z,-0.10
2019-02-14T07:24:04.288Z,-0.10
2019-02-14T07:25:04.544Z,0.00
2019-02-14T07:26:04.791Z,0.00
2019-02-14T07:27:04.839Z,0.00
2019-02-14T07:28:04.197Z,0.00
2019-02-14T07:29:04.310Z,0.00
2019-02-14T07:30:04.438Z,0.00
2019-02-14T07:31:09.764Z,0.10
2019-02-14T07:32:05.249Z,0.10
2019-02-14T07:33:04.571Z,0.10
2019-02-14T07:34:04.426Z,0.10
2019-02-14T07:35:04.476Z,0.10
2019-02-14T07:36:04.640Z,0.20
2019-02-14T07:37:05.154Z,0.20
2019-02-14T07:38:04.300Z,0.20
2019-02-14T07:39:04.602Z,0.20
2019-02-14T07:40:04.866Z,0.20
2019-02-14T07:41:04.975Z,0.20
2019-02-14T07:42:04.594Z,0.20
2019-02-14T07:43:05.144Z,0.30
2019-02-14T07:44:04.441Z,0.30
2019-02-14T07:45:04.955Z,0.30
2019-02-14T07:46:05.073Z,0.30
2019-02-14T07:47:04.331Z,0.30
2019-02-14T07:48:04.519Z,0.30
2019-02-14T07:49:04.195Z,0.30
2019-02-14T07:50:04.928Z,0.30
2019-02-14T07:51:04.554Z,0.30
2019-02-14T07:52:04.650Z,0.30
2019-02-14T07:53:04.731Z,0.30
2019-02-14T07:54:04.955Z,0.30
2019-02-14T07:55:04.741Z,0.30
2019-02-14T07:56:04.527Z,0.30
2019-02-14T07:57:05.036Z,0.30
2019-02-14T07:58:05.149Z,0.30
2019-02-14T07:59:04.321Z,0.30
2019-02-14T08:00:04.818Z,0.30
2019-02-14T08:01:04.308Z,0.40
2019-02-14T08:02:04.735Z,0.40
2019-02-14T08:03:04.813Z,0.40
2019-02-14T08:04:05.052Z,0.40
2019-02-14T08:05:05.029Z,0.40
2019-02-14T08:06:04.853Z,0.40
2019-02-14T08:07:04.719Z,0.40
2019-02-14T08:08:04.816Z,0.40
2019-02-14T08:09:04.990Z,0.40
2019-02-14T08:10:04.252Z,0.40
2019-02-14T08:11:04.474Z,0.40
2019-02-14T08:12:04.736Z,0.40
2019-02-14T08:13:04.789Z,0.50
2019-02-14T08:14:05.148Z,0.50
2019-02-14T08:15:04.434Z,0.50
2019-02-14T08:16:04.611Z,0.50
2019-02-14T08:17:04.677Z,0.50
2019-02-14T08:18:04.900Z,0.50
2019-02-14T08:19:04.985Z,0.50
2019-02-14T08:20:04.680Z,0.50
2019-02-14T08:21:05.048Z,0.60
2019-02-14T08:22:04.592Z,0.60
2019-02-14T08:23:04.515Z,0.60
2019-02-14T08:24:04.528Z,0.60
2019-02-14T08:25:04.787Z,0.60
2019-02-14T08:26:10.527Z,0.70
2019-02-14T08:27:04.763Z,0.70
2019-02-14T08:28:05.029Z,0.70
2019-02-14T08:29:05.155Z,0.70
2019-02-14T08:30:04.294Z,0.80
2019-02-14T08:31:04.340Z,0.80
2019-02-14T08:32:05.100Z,0.80
2019-02-14T08:33:04.452Z,0.80
2019-02-14T08:34:04.558Z,0.90
2019-02-14T08:35:06.474Z,0.90
2019-02-14T08:36:04.392Z,1.00
2019-02-14T08:37:05.173Z,1.00
2019-02-14T08:38:04.133Z,1.00
2019-02-14T08:39:04.490Z,1.10
2019-02-14T08:40:04.718Z,1.10
2019-02-14T08:41:04.906Z,1.10
2019-02-14T08:42:04.580Z,1.20
2019-02-14T08:43:04.725Z,1.20
2019-02-14T08:44:05.196Z,1.30
2019-02-14T08:45:04.919Z,1.30
2019-02-14T08:46:05.098Z,1.30
2019-02-14T08:47:04.720Z,1.40
2019-02-14T08:48:05.109Z,1.40
2019-02-14T08:49:04.186Z,1.40
2019-02-14T08:50:04.963Z,1.50
2019-02-14T08:51:05.062Z,1.50
2019-02-14T08:52:04.233Z,1.60
2019-02-14T08:53:04.329Z,1.60
2019-02-14T08:54:04.966Z,1.60
2019-02-14T08:55:05.172Z,1.70
2019-02-14T08:56:09.351Z,1.70
2019-02-14T08:57:04.421Z,1.80
2019-02-14T08:58:04.616Z,1.80
2019-02-14T08:59:04.810Z,1.80
2019-02-14T09:00:04.498Z,1.80
2019-02-14T09:01:04.526Z,1.80
2019-02-14T09:02:04.812Z,1.90
2019-02-14T09:03:04.208Z,1.90
2019-02-14T09:04:04.516Z,1.90
2019-02-14T09:05:04.650Z,1.90
2019-02-14T09:06:05.045Z,1.90
2019-02-14T09:07:05.210Z,1.90
2019-02-14T09:08:04.201Z,1.90
2019-02-14T09:09:04.346Z,1.90
2019-02-14T09:10:04.411Z,2.00
2019-02-14T09:11:04.909Z,2.00
2019-02-14T09:12:05.153Z,2.00
2019-02-14T09:13:04.372Z,2.00
2019-02-14T09:14:04.281Z,2.00
2019-02-14T09:15:04.734Z,2.00
2019-02-14T09:16:04.817Z,2.10
2019-02-14T09:17:05.028Z,2.10
2019-02-14T09:18:04.317Z,2.10
2019-02-14T09:19:04.629Z,2.10
2019-02-14T09:20:05.184Z,2.10
2019-02-14T09:21:04.409Z,2.20
2019-02-14T09:22:04.411Z,2.20
2019-02-14T09:23:05.174Z,2.20
2019-02-14T09:24:04.830Z,2.20
2019-02-14T09:25:04.878Z,2.20
2019-02-14T09:26:05.111Z,2.30
2019-02-14T09:27:04.160Z,2.30
2019-02-14T09:28:04.768Z,2.40
2019-02-14T09:29:12.106Z,2.40
2019-02-14T09:30:04.515Z,2.40
2019-02-14T09:31:05.219Z,2.50
2019-02-14T09:32:04.681Z,2.50
2019-02-14T09:33:05.033Z,2.60
2019-02-14T09:34:05.108Z,2.60
2019-02-14T09:35:04.790Z,2.70
2019-02-14T09:36:04.307Z,2.70
2019-02-14T09:37:04.486Z,2.80
2019-02-14T09:38:04.570Z,2.90
2019-02-14T09:39:05.095Z,2.90
2019-02-14T09:40:04.733Z,3.00
2019-02-14T09:41:04.953Z,3.00
2019-02-14T09:42:05.081Z,3.10
2019-02-14T09:43:04.494Z,3.10
2019-02-14T09:44:04.781Z,3.20
2019-02-14T09:45:05.117Z,3.20
2019-02-14T09:46:04.537Z,3.30
2019-02-14T09:47:05.009Z,3.30
2019-02-14T09:48:04.539Z,3.30
2019-02-14T09:49:04.537Z,3.40
2019-02-14T09:50:04.727Z,3.40
2019-02-14T09:51:04.598Z,3.50
2019-02-14T09:52:04.729Z,3.60
2019-02-14T09:53:04.327Z,3.60
2019-02-14T09:54:04.491Z,3.70
2019-02-14T09:55:04.717Z,3.70
2019-02-14T09:56:04.294Z,3.80
2019-02-14T09:57:04.357Z,3.90
2019-02-14T09:58:04.638Z,3.90
2019-02-14T09:59:05.293Z,3.90
2019-02-14T10:00:04.658Z,4.00
2019-02-14T10:01:04.395Z,4.10
2019-02-14T10:02:04.729Z,4.10
2019-02-14T10:03:04.370Z,4.20
2019-02-14T10:04:04.323Z,4.20
2019-02-14T10:05:04.894Z,4.30
2019-02-14T10:06:05.120Z,4.30
2019-02-14T10:07:04.548Z,4.40
2019-02-14T10:08:12.341Z,4.40
2019-02-14T10:09:04.800Z,4.50
2019-02-14T10:10:05.066Z,4.50
2019-02-14T10:11:04.638Z,4.60
2019-02-14T10:12:05.215Z,4.60
2019-02-14T10:13:04.799Z,4.70
2019-02-14T10:14:04.914Z,4.70
2019-02-14T10:15:04.561Z,4.70
2019-02-14T10:16:04.719Z,4.80
2019-02-14T10:17:05.005Z,4.80
2019-02-14T10:18:04.439Z,4.90
2019-02-14T10:19:04.964Z,4.90
2019-02-14T10:20:04.778Z,4.90
2019-02-14T10:21:04.822Z,5.00
2019-02-14T10:22:04.871Z,5.00
2019-02-14T10:23:05.052Z,5.10
2019-02-14T10:24:05.081Z,5.10
2019-02-14T10:25:04.512Z,5.20
2019-02-14T10:26:04.645Z,5.20
2019-02-14T10:27:04.279Z,5.20
2019-02-14T10:28:04.891Z,5.30
2019-02-14T10:29:10.310Z,5.30
2019-02-14T10:30:04.733Z,5.30
2019-02-14T10:31:05.073Z,5.40
2019-02-14T10:32:05.146Z,5.50
2019-02-14T10:33:04.359Z,5.50
2019-02-14T10:34:04.802Z,5.50
2019-02-14T10:35:04.871Z,5.50
2019-02-14T10:36:04.540Z,5.60
2019-02-14T10:37:04.461Z,5.60
2019-02-14T10:38:05.105Z,5.70
2019-02-14T10:39:04.473Z,5.70
2019-02-14T10:40:04.647Z,5.70
2019-02-14T10:41:04.388Z,5.80
2019-02-14T10:42:04.740Z,5.80
2019-02-14T10:43:04.778Z,5.80
2019-02-14T10:44:05.007Z,5.90
2019-02-14T10:45:05.093Z,5.90
2019-02-14T10:46:04.676Z,5.90
2019-02-14T10:47:04.775Z,6.00
2019-02-14T10:48:04.993Z,6.00
2019-02-14T10:49:09.473Z,6.00
2019-02-14T10:50:04.835Z,6.10
2019-02-14T10:51:04.976Z,6.10
2019-02-14T10:52:05.136Z,6.10
2019-02-14T10:53:04.427Z,6.10
2019-02-14T10:54:04.459Z,6.20
2019-02-14T10:55:04.725Z,6.20
2019-02-14T10:56:04.160Z,6.20
2019-02-14T10:57:04.457Z,6.30
2019-02-14T10:58:04.707Z,6.30
2019-02-14T10:59:04.185Z,6.40
2019-02-14T11:00:04.845Z,6.40
2019-02-14T11:01:04.911Z,6.40
2019-02-14T11:02:04.572Z,6.50
2019-02-14T11:03:04.788Z,6.50
2019-02-14T11:04:04.967Z,6.50
2019-02-14T11:05:04.296Z,6.60
2019-02-14T11:06:04.449Z,6.60
2019-02-14T11:07:04.784Z,6.60
2019-02-14T11:08:04.902Z,6.70
2019-02-14T11:09:05.258Z,6.70
2019-02-14T11:10:04.357Z,6.70
2019-02-14T11:11:05.078Z,6.80
2019-02-14T11:12:04.894Z,6.80
2019-02-14T11:13:05.023Z,6.80
2019-02-14T11:14:04.485Z,6.90
2019-02-14T11:15:04.857Z,6.90
2019-02-14T11:16:05.084Z,6.90
2019-02-14T11:17:04.218Z,7.00
2019-02-14T11:18:04.903Z,7.00
2019-02-14T11:19:04.495Z,7.10
2019-02-14T11:20:04.458Z,7.10
2019-02-14T11:21:04.689Z,7.10
2019-02-14T11:22:04.889Z,7.20
2019-02-14T11:23:05.028Z,7.20
2019-02-14T11:24:05.153Z,7.20
2019-02-14T11:25:04.302Z,7.30
2019-02-14T11:26:04.841Z,7.30
2019-02-14T11:27:05.103Z,7.30
2019-02-14T11:28:04.984Z,7.40
2019-02-14T11:29:04.261Z,7.40
2019-02-14T11:30:04.860Z,7.40
2019-02-14T11:31:05.250Z,7.40
2019-02-14T11:32:04.560Z,7.50
2019-02-14T11:33:04.813Z,7.50
2019-02-14T11:34:05.060Z,7.50
2019-02-14T11:35:05.015Z,7.60
2019-02-14T11:36:04.656Z,7.60
2019-02-14T11:37:04.855Z,7.60
2019-02-14T11:38:05.108Z,7.70
2019-02-14T11:39:04.344Z,7.70
2019-02-14T11:40:04.430Z,7.70
2019-02-14T11:41:04.858Z,7.80
2019-02-14T11:42:05.024Z,7.80
2019-02-14T11:43:05.093Z,7.80
2019-02-14T11:44:04.464Z,7.90
2019-02-14T11:45:04.532Z,7.90
2019-02-14T11:46:04.503Z,7.90
2019-02-14T11:47:09.841Z,8.00
2019-02-14T11:48:04.354Z,8.00
2019-02-14T11:49:04.348Z,8.00
2019-02-14T11:50:06.580Z,8.00
2019-02-14T11:51:04.674Z,8.10
2019-02-14T11:52:04.713Z,8.10
2019-02-14T11:53:13.586Z,8.10
2019-02-14T11:54:04.965Z,8.10
2019-02-14T11:55:04.464Z,8.20
2019-02-14T11:56:04.668Z,8.20
2019-02-14T11:57:04.638Z,8.20
2019-02-14T11:58:04.602Z,8.20
2019-02-14T11:59:04.412Z,8.20
2019-02-14T12:00:04.204Z,8.30
2019-02-14T12:01:04.428Z,8.30
2019-02-14T12:02:04.472Z,8.30
2019-02-14T12:03:04.540Z,8.30
2019-02-14T12:04:04.864Z,8.40
2019-02-14T12:05:04.623Z,8.40
2019-02-14T12:06:04.538Z,8.40
2019-02-14T12:07:04.710Z,8.40
2019-02-14T12:08:05.055Z,8.50
2019-02-14T12:09:05.305Z,8.50
2019-02-14T12:10:12.847Z,8.50
2019-02-14T12:11:04.431Z,8.50
2019-02-14T12:12:04.450Z,8.60
2019-02-14T12:13:04.242Z,8.60
2019-02-14T12:14:04.448Z,8.60
2019-02-14T12:15:04.614Z,8.70
2019-02-14T12:16:04.536Z,8.70
2019-02-14T12:17:04.416Z,8.70
2019-02-14T12:18:04.865Z,8.80
2019-02-14T12:19:05.195Z,8.80
2019-02-14T12:20:05.155Z,8.80
2019-02-14T12:21:05.262Z,8.80
2019-02-14T12:22:04.249Z,8.90
2019-02-14T12:23:04.496Z,8.90
2019-02-14T12:24:04.685Z,8.90
2019-02-14T12:25:04.709Z,9.00
2019-02-14T12:26:05.730Z,9.00
2019-02-14T12:27:04.518Z,9.00
2019-02-14T12:28:04.697Z,9.00
2019-02-14T12:29:09.981Z,9.00
2019-02-14T12:30:04.490Z,9.10
2019-02-14T12:31:04.590Z,9.10
2019-02-14T12:32:04.732Z,9.10
2019-02-14T12:33:04.879Z,9.10
2019-02-14T12:34:05.064Z,9.20
2019-02-14T12:35:05.209Z,9.20
2019-02-14T12:36:04.394Z,9.20
2019-02-14T12:37:04.790Z,9.20
2019-02-14T12:38:04.798Z,9.20
2019-02-14T12:39:09.027Z,9.30
2019-02-14T12:40:04.909Z,9.30
2019-02-14T12:41:05.269Z,9.30
2019-02-14T12:42:04.307Z,9.30
2019-02-14T12:43:04.994Z,9.40
2019-02-14T12:44:04.462Z,9.40
2019-02-14T12:45:04.543Z,9.40
2019-02-14T12:46:04.871Z,9.40
2019-02-14T12:47:05.046Z,9.40
2019-02-14T12:48:04.258Z,9.50
2019-02-14T12:49:04.919Z,9.50
2019-02-14T12:50:04.331Z,9.50
2019-02-14T12:51:04.862Z,9.50
2019-02-14T12:52:04.431Z,9.50
2019-02-14T12:53:04.688Z,9.60
2019-02-14T12:54:04.792Z,9.60
2019-02-14T12:55:09.466Z,9.60
2019-02-14T12:56:05.012Z,9.70
2019-02-14T12:57:05.048Z,9.70
2019-02-14T12:58:04.753Z,9.70
2019-02-14T12:59:05.201Z,9.70
2019-02-14T13:00:04.255Z,9.70
2019-02-14T13:01:04.704Z,9.70
2019-02-14T13:02:04.863Z,9.80
2019-02-14T13:03:04.341Z,9.80
2019-02-14T13:04:04.989Z,9.80
2019-02-14T13:05:04.186Z,9.80
2019-02-14T13:06:04.797Z,9.80
2019-02-14T13:07:04.919Z,9.80
2019-02-14T13:08:05.082Z,9.80
2019-02-14T13:09:05.195Z,9.80
2019-02-14T13:10:05.064Z,9.80